Time;durP1;ratioP1;P1;durP2;ratioP2;P2;SDS_P1;SDS_P2;PMS_P1;PMS_P2;Temp;Humidity;BMP_temperature;BMP_pressure;BME280_temperature;BME280_humidity;BME280_pressure;Samples;Min_cycle;Max_cycle;Signal;HPM_P1;HPM_P2
2022/11/22 00:00:19;;;;;;;9.80;2.17;;;;;;;;;;5027332;28;20128;-65
2022/11/22 00:02:45;;;;;;;11.90;2.80;;;;;;;;;;5027313;28;20452;-65
2022/11/22 00:05:10;;;;;;;15.50;2.58;;;;;;;;;;5027771;28;20068;-68
2022/11/22 00:07:36;;;;;;;7.38;1.70;;;;;;;;;;5027051;28;20041;-65
2022/11/22 00:10:03;;;;;;;6.70;1.95;;;;;;;;;;5041438;28;20032;-65
2022/11/22 00:12:28;;;;;;;8.82;1.80;;;;;;;;;;5053608;28;21307;-65
2022/11/22 00:14:53;;;;;;;9.82;1.38;;;;;;;;;;5041905;28;20120;-65
2022/11/22 00:17:18;;;;;;;4.63;1.15;;;;;;;;;;5047032;28;20040;-65
2022/11/22 00:19:44;;;;;;;3.40;1.45;;;;;;;;;;5046952;28;20058;-65
2022/11/22 00:22:09;;;;;;;7.50;1.58;;;;;;;;;;5032894;28;20026;-64
2022/11/22 00:24:34;;;;;;;10.65;1.50;;;;;;;;;;5027057;28;20057;-65
2022/11/22 00:27:00;;;;;;;8.82;2.08;;;;;;;;;;5026940;28;20465;-65
2022/11/22 00:29:25;;;;;;;4.70;1.23;;;;;;;;;;5026496;28;20111;-65
2022/11/22 00:31:51;;;;;;;13.38;1.42;;;;;;;;;;5027254;28;20034;-65
2022/11/22 00:34:16;;;;;;;9.20;2.92;;;;;;;;;;5040090;28;20029;-65
2022/11/22 00:36:41;;;;;;;5.10;1.92;;;;;;;;;;5019300;28;20029;-65
2022/11/22 00:39:07;;;;;;;7.13;1.27;;;;;;;;;;5026965;28;20522;-65
2022/11/22 00:41:32;;;;;;;2.33;1.30;;;;;;;;;;5026104;28;20502;-65
2022/11/22 00:43:57;;;;;;;1.80;1.10;;;;;;;;;;5026978;28;20029;-65
2022/11/22 00:46:23;;;;;;;4.80;1.17;;;;;;;;;;5028644;28;20705;-65
2022/11/22 00:48:48;;;;;;;3.83;1.00;;;;;;;;;;5029942;28;20056;-65
2022/11/22 00:51:14;;;;;;;2.08;0.73;;;;;;;;;;5026521;28;20592;-65
2022/11/22 00:53:39;;;;;;;3.92;1.10;;;;;;;;;;5026151;28;20052;-65
2022/11/22 00:56:04;;;;;;;5.03;1.58;;;;;;;;;;5047680;28;20056;-65
2022/11/22 00:58:30;;;;;;;8.88;1.40;;;;;;;;;;5066619;28;20111;-65
2022/11/22 01:00:55;;;;;;;3.17;1.27;;;;;;;;;;5066483;28;20028;-65
2022/11/22 01:03:21;;;;;;;8.93;1.45;;;;;;;;;;5066124;28;20523;-65
2022/11/22 01:05:46;;;;;;;8.18;1.10;;;;;;;;;;5065843;28;20063;-65
2022/11/22 01:08:11;;;;;;;7.43;1.33;;;;;;;;;;5065901;28;20034;-65
2022/11/22 01:10:37;;;;;;;4.65;0.98;;;;;;;;;;5065709;28;20119;-65
2022/11/22 01:13:03;;;;;;;7.32;0.98;;;;;;;;;;5065812;28;20108;-65
2022/11/22 01:15:30;;;;;;;9.68;1.40;;;;;;;;;;5025726;28;20036;-65
2022/11/22 01:17:55;;;;;;;4.07;1.10;;;;;;;;;;5024243;28;20060;-65
2022/11/22 01:20:21;;;;;;;8.23;0.98;;;;;;;;;;5024978;28;20046;-65
2022/11/22 01:22:47;;;;;;;3.15;0.68;;;;;;;;;;5023503;28;20029;-65
2022/11/22 01:25:12;;;;;;;8.70;0.98;;;;;;;;;;5023118;28;20028;-64
2022/11/22 01:27:38;;;;;;;5.20;1.05;;;;;;;;;;5023934;28;20035;-65
2022/11/22 01:30:04;;;;;;;3.90;1.00;;;;;;;;;;5023685;28;20037;-65
2022/11/22 01:32:29;;;;;;;8.82;1.20;;;;;;;;;;5023124;28;20038;-65
2022/11/22 01:34:54;;;;;;;4.05;0.82;;;;;;;;;;5038275;28;20041;-65
2022/11/22 01:37:20;;;;;;;1.33;0.75;;;;;;;;;;5045995;28;20402;-65
2022/11/22 01:39:45;;;;;;;6.90;1.33;;;;;;;;;;5046756;28;20083;-65
2022/11/22 01:42:11;;;;;;;10.18;1.20;;;;;;;;;;5027604;28;20044;-65
2022/11/22 01:44:41;;;;;;;4.40;1.08;;;;;;;;;;5046075;28;20055;-65
2022/11/22 01:47:12;;;;;;;8.40;0.82;;;;;;;;;;5046244;28;20047;-65
2022/11/22 01:49:46;;;;;;;2.30;0.90;;;;;;;;;;5033950;28;20045;-65
2022/11/22 01:52:17;;;;;;;0.82;0.77;;;;;;;;;;5034793;28;20053;-64
2022/11/22 01:54:46;;;;;;;3.83;1.10;;;;;;;;;;5025723;28;20033;-65
2022/11/22 01:57:15;;;;;;;5.75;0.70;;;;;;;;;;5025933;28;20068;-65
2022/11/22 01:59:45;;;;;;;8.30;0.88;;;;;;;;;;5025009;28;20041;-65
2022/11/22 02:02:11;;;;;;;12.02;1.33;;;;;;;;;;5025945;28;20045;-65
2022/11/22 02:04:38;;;;;;;3.20;0.80;;;;;;;;;;5026042;28;20113;-65
2022/11/22 02:07:19;;;;;;;4.60;1.17;;;;;;;;;;5026314;28;20029;-65
2022/11/22 02:09:47;;;;;;;1.55;0.68;;;;;;;;;;5025791;28;20073;-65
2022/11/22 02:12:14;;;;;;;3.22;0.90;;;;;;;;;;5025644;28;20038;-65
2022/11/22 02:14:40;;;;;;;6.30;1.60;;;;;;;;;;5032482;28;20052;-65
2022/11/22 02:17:05;;;;;;;2.95;0.73;;;;;;;;;;5045487;28;20111;-65
2022/11/22 02:19:46;;;;;;;6.68;1.40;;;;;;;;;;5044882;28;20588;-65
2022/11/22 02:22:22;;;;;;;5.45;0.80;;;;;;;;;;5043477;28;20021;-64
2022/11/22 02:24:54;;;;;;;14.27;1.58;;;;;;;;;;5048468;28;20013;-65
2022/11/22 02:27:20;;;;;;;5.30;0.77;;;;;;;;;;5048694;28;20036;-65
2022/11/22 02:29:45;;;;;;;2.45;0.80;;;;;;;;;;5049201;28;20276;-65
2022/11/22 02:32:10;;;;;;;2.53;1.02;;;;;;;;;;5049100;28;20656;-65
2022/11/22 02:34:54;;;;;;;3.53;0.82;;;;;;;;;;5047462;28;20037;-65
2022/11/22 02:37:22;;;;;;;;;;;;;;;;;;5029610;28;20527;-65
2022/11/22 02:39:52;;;;;;;1.95;1.02;;;;;;;;;;5029183;28;19955;-65
2022/11/22 02:42:17;;;;;;;1.48;0.90;;;;;;;;;;5028551;28;20037;-65
2022/11/22 02:44:42;;;;;;;3.40;0.98;;;;;;;;;;5029030;28;20040;-65
2022/11/22 02:47:08;;;;;;;3.08;0.75;;;;;;;;;;5026860;28;20479;-65
2022/11/22 02:49:33;;;;;;;1.95;0.60;;;;;;;;;;5029058;28;20056;-65
2022/11/22 02:51:58;;;;;;;0.73;0.47;;;;;;;;;;5031294;28;20103;-64
2022/11/22 02:54:24;;;;;;;4.40;0.98;;;;;;;;;;5034677;28;20164;-65
2022/11/22 02:56:49;;;;;;;1.02;0.65;;;;;;;;;;5035969;28;20057;-65
2022/11/22 02:59:14;;;;;;;4.28;0.45;;;;;;;;;;5028427;28;20140;-65
2022/11/22 03:01:41;;;;;;;1.15;0.50;;;;;;;;;;5035043;28;20560;-64
2022/11/22 03:04:06;;;;;;;5.28;0.50;;;;;;;;;;5034122;28;20025;-65
2022/11/22 03:06:31;;;;;;;2.40;0.88;;;;;;;;;;5028391;28;20086;-65
2022/11/22 03:08:57;;;;;;;4.90;1.00;;;;;;;;;;5028847;28;20068;-65
2022/11/22 03:11:23;;;;;;;2.17;1.00;;;;;;;;;;5053105;28;20037;-64
2022/11/22 03:13:48;;;;;;;3.83;1.05;;;;;;;;;;5061544;28;20128;-64
2022/11/22 03:16:13;;;;;;;3.05;1.63;;;;;;;;;;5041224;28;20033;-65
2022/11/22 03:18:39;;;;;;;5.40;1.25;;;;;;;;;;5026287;28;20432;-65
2022/11/22 03:21:07;;;;;;;6.68;1.40;;;;;;;;;;5028026;28;20044;-65
2022/11/22 03:23:33;;;;;;;1.52;0.73;;;;;;;;;;5035314;28;20083;-65
2022/11/22 03:25:58;;;;;;;2.72;0.93;;;;;;;;;;5048295;28;20062;-65
2022/11/22 03:28:25;;;;;;;2.60;0.98;;;;;;;;;;5047995;28;20024;-64
2022/11/22 03:30:50;;;;;;;4.25;1.00;;;;;;;;;;5048029;28;20726;-65
2022/11/22 03:33:16;;;;;;;6.50;1.67;;;;;;;;;;5048059;28;20033;-65
2022/11/22 03:35:41;;;;;;;1.08;0.60;;;;;;;;;;5047234;28;20033;-64
2022/11/22 03:38:06;;;;;;;0.90;0.52;;;;;;;;;;5034269;28;20034;-65
2022/11/22 03:40:32;;;;;;;1.08;0.82;;;;;;;;;;5026625;28;20097;-64
2022/11/22 03:43:00;;;;;;;5.35;0.95;;;;;;;;;;5028047;28;20037;-65
2022/11/22 03:45:26;;;;;;;3.53;0.82;;;;;;;;;;5036174;28;20519;-65
2022/11/22 03:47:51;;;;;;;1.98;0.98;;;;;;;;;;5027837;28;20045;-65
2022/11/22 03:50:17;;;;;;;2.60;0.70;;;;;;;;;;5027169;28;20045;-64
2022/11/22 03:52:42;;;;;;;4.28;0.93;;;;;;;;;;5027427;28;20041;-64
2022/11/22 03:55:07;;;;;;;2.53;0.85;;;;;;;;;;5028087;28;20107;-65
2022/11/22 03:57:33;;;;;;;8.73;1.08;;;;;;;;;;5029873;28;20422;-64
2022/11/22 03:59:58;;;;;;;3.25;1.02;;;;;;;;;;5048202;28;20079;-65
2022/11/22 04:02:23;;;;;;;2.00;0.70;;;;;;;;;;5047126;28;20087;-65
2022/11/22 04:04:49;;;;;;;4.38;1.20;;;;;;;;;;5047544;28;20445;-64
2022/11/22 04:07:14;;;;;;;4.93;0.95;;;;;;;;;;5049485;28;20397;-64
2022/11/22 04:09:39;;;;;;;4.50;0.85;;;;;;;;;;5043073;28;20690;-65
2022/11/22 04:12:05;;;;;;;1.67;0.75;;;;;;;;;;5047276;28;20472;-65
2022/11/22 04:17:39;;;;;;;;;;;;;;;;;;5047394;28;20133;-65
2022/11/22 04:22:42;;;;;;;;;;;;;;;;;;5047304;28;20055;-64
2022/11/22 04:25:14;;;;;;;1.75;0.40;;;;;;;;;;5047062;28;19956;-65
2022/11/22 04:27:39;;;;;;;4.20;0.98;;;;;;;;;;5046736;28;20611;-65
2022/11/22 04:30:05;;;;;;;9.68;1.33;;;;;;;;;;5046645;28;20037;-65
2022/11/22 04:32:45;;;;;;;1.35;0.52;;;;;;;;;;5046599;28;20041;-65
2022/11/22 04:35:17;;;;;;;7.22;1.02;;;;;;;;;;5046349;28;20425;-65
2022/11/22 04:37:49;;;;;;;1.80;0.82;;;;;;;;;;5050192;28;20044;-65
2022/11/22 04:40:15;;;;;;;4.13;0.80;;;;;;;;;;5025675;28;20368;-64
2022/11/22 04:45:31;;;;;;;0.98;0.77;;;;;;;;;;5001976;28;20116;-65
2022/11/22 04:47:59;;;;;;;6.82;1.60;;;;;;;;;;5025076;28;20125;-65
2022/11/22 04:53:11;;;;;;;4.63;1.42;;;;;;;;;;5026436;28;20044;-65
2022/11/22 04:55:36;;;;;;;3.92;1.10;;;;;;;;;;5051505;28;20024;-65
2022/11/22 04:58:02;;;;;;;6.15;1.05;;;;;;;;;;5067401;28;20029;-65
2022/11/22 05:00:29;;;;;;;1.48;0.80;;;;;;;;;;5065953;28;20033;-65
2022/11/22 05:02:55;;;;;;;5.70;1.17;;;;;;;;;;5066342;28;20028;-65
2022/11/22 05:05:20;;;;;;;2.72;1.02;;;;;;;;;;5066442;28;20421;-65
2022/11/22 05:07:46;;;;;;;1.98;1.02;;;;;;;;;;5047370;28;20044;-65
2022/11/22 05:10:11;;;;;;;3.55;1.10;;;;;;;;;;5026245;28;20636;-63
2022/11/22 05:12:36;;;;;;;5.72;1.73;;;;;;;;;;5024999;28;20079;-65
2022/11/22 05:15:02;;;;;;;3.47;0.68;;;;;;;;;;5042306;28;20032;-65
2022/11/22 05:17:28;;;;;;;2.88;1.42;;;;;;;;;;5045500;28;20130;-64
2022/11/22 05:19:53;;;;;;;2.75;1.40;;;;;;;;;;5045759;28;20072;-65
2022/11/22 05:23:52;;;;;;;1.58;1.02;;;;;;;;;;5045714;28;20025;-65
2022/11/22 05:25:04;;;;;;;5.57;1.40;;;;;;;;;;5045925;28;20013;-65
2022/11/22 05:27:29;;;;;;;3.65;1.20;;;;;;;;;;5046276;28;20037;-65
2022/11/22 05:29:54;;;;;;;2.35;1.17;;;;;;;;;;5049274;28;20025;-64
2022/11/22 05:32:20;;;;;;;3.70;1.33;;;;;;;;;;5040559;28;20037;-65
2022/11/22 05:34:45;;;;;;;4.50;1.20;;;;;;;;;;5043784;28;20128;-65
2022/11/22 05:37:10;;;;;;;2.10;1.10;;;;;;;;;;5038592;28;20031;-64
2022/11/22 05:39:36;;;;;;;6.05;1.70;;;;;;;;;;5047513;28;20028;-64
2022/11/22 05:42:04;;;;;;;2.78;0.95;;;;;;;;;;5045740;28;20037;-65
2022/11/22 05:44:30;;;;;;;2.75;1.33;;;;;;;;;;5046071;28;20044;-65
2022/11/22 05:46:55;;;;;;;4.38;1.60;;;;;;;;;;5044492;28;20462;-65
2022/11/22 05:49:20;;;;;;;4.63;1.52;;;;;;;;;;5045429;28;20100;-64
2022/11/22 05:51:46;;;;;;;4.40;1.40;;;;;;;;;;5025655;28;20391;-65
2022/11/22 05:54:11;;;;;;;4.40;1.20;;;;;;;;;;5025295;28;20118;-64
2022/11/22 05:56:36;;;;;;;6.90;1.45;;;;;;;;;;5025461;28;20029;-65
2022/11/22 05:59:02;;;;;;;4.32;1.50;;;;;;;;;;5036480;28;20020;-64
2022/11/22 06:01:27;;;;;;;2.97;1.38;;;;;;;;;;5054390;28;20060;-64
2022/11/22 06:03:53;;;;;;;4.70;1.13;;;;;;;;;;5049964;28;20151;-65
2022/11/22 06:06:18;;;;;;;1.98;0.93;;;;;;;;;;5049334;28;20119;-65
2022/11/22 06:08:46;;;;;;;3.38;1.35;;;;;;;;;;5049362;28;20044;-65
2022/11/22 06:11:16;;;;;;;10.80;1.20;;;;;;;;;;5048757;28;20521;-65
2022/11/22 06:13:43;;;;;;;3.72;1.35;;;;;;;;;;5045987;28;20044;-65
2022/11/22 06:16:10;;;;;;;2.65;0.70;;;;;;;;;;5029581;28;20033;-65
2022/11/22 06:18:36;;;;;;;2.60;1.70;;;;;;;;;;5029585;28;20090;-65
2022/11/22 06:21:05;;;;;;;1.95;1.33;;;;;;;;;;5033764;28;20610;-64
2022/11/22 06:23:30;;;;;;;2.63;1.10;;;;;;;;;;5047728;28;20036;-65
2022/11/22 06:25:57;;;;;;;4.07;1.20;;;;;;;;;;5049064;28;20037;-65
2022/11/22 06:28:22;;;;;;;2.22;1.40;;;;;;;;;;5047489;28;20021;-64
2022/11/22 06:30:48;;;;;;;3.20;1.45;;;;;;;;;;5049459;28;20024;-65
2022/11/22 06:33:13;;;;;;;1.75;1.15;;;;;;;;;;5048646;28;20037;-65
2022/11/22 06:35:38;;;;;;;8.32;1.38;;;;;;;;;;5048812;28;20033;-65
2022/11/22 06:38:04;;;;;;;5.07;1.50;;;;;;;;;;5048710;28;20441;-65
2022/11/22 06:40:29;;;;;;;2.83;1.20;;;;;;;;;;5048986;28;20128;-65
2022/11/22 06:42:54;;;;;;;16.17;2.95;;;;;;;;;;5046815;28;20037;-65
2022/11/22 06:45:19;;;;;;;3.60;1.30;;;;;;;;;;5048676;28;20025;-65
2022/11/22 06:47:45;;;;;;;14.20;3.33;;;;;;;;;;5049083;28;20040;-64
2022/11/22 06:50:10;;;;;;;5.20;1.35;;;;;;;;;;5048187;28;20077;-64
2022/11/22 06:52:35;;;;;;;5.95;2.17;;;;;;;;;;5047951;28;20049;-64
2022/11/22 06:55:01;;;;;;;6.35;2.53;;;;;;;;;;5047633;28;20052;-65
2022/11/22 06:57:26;;;;;;;10.15;2.65;;;;;;;;;;5048312;28;20037;-65
2022/11/22 06:59:51;;;;;;;12.32;3.35;;;;;;;;;;5048810;28;20754;-65
2022/11/22 07:02:17;;;;;;;5.40;3.05;;;;;;;;;;5048638;28;20117;-65
2022/11/22 07:04:42;;;;;;;5.20;2.15;;;;;;;;;;5040089;28;20041;-65
2022/11/22 07:07:07;;;;;;;8.35;2.95;;;;;;;;;;5042882;28;20108;-65
2022/11/22 07:09:32;;;;;;;11.52;3.22;;;;;;;;;;5047306;28;20041;-65
2022/11/22 07:11:58;;;;;;;6.15;2.25;;;;;;;;;;5048338;28;20040;-65
2022/11/22 07:14:23;;;;;;;4.68;1.70;;;;;;;;;;5047855;28;20510;-64
2022/11/22 07:16:48;;;;;;;4.47;1.88;;;;;;;;;;5046741;28;20116;-65
2022/11/22 07:19:14;;;;;;;8.43;2.28;;;;;;;;;;5048683;28;20028;-64
2022/11/22 07:21:39;;;;;;;8.32;2.00;;;;;;;;;;5043015;28;20071;-65
2022/11/22 07:24:05;;;;;;;5.32;1.73;;;;;;;;;;5047933;28;20473;-65
2022/11/22 07:26:30;;;;;;;7.60;2.08;;;;;;;;;;5047939;28;20094;-65
2022/11/22 07:28:56;;;;;;;5.55;1.63;;;;;;;;;;5047436;28;20037;-65
2022/11/22 07:31:21;;;;;;;7.60;1.98;;;;;;;;;;5047844;28;20036;-65
2022/11/22 07:33:46;;;;;;;10.60;1.85;;;;;;;;;;5042166;28;20033;-65
2022/11/22 07:36:15;;;;;;;4.25;1.25;;;;;;;;;;5024664;28;20034;-64
2022/11/22 07:38:40;;;;;;;2.50;1.25;;;;;;;;;;5025084;28;20049;-65
2022/11/22 07:41:06;;;;;;;4.80;1.67;;;;;;;;;;5027488;28;21013;-64
2022/11/22 07:43:32;;;;;;;4.15;1.80;;;;;;;;;;5046978;28;20029;-65
2022/11/22 07:46:02;;;;;;;2.75;1.63;;;;;;;;;;5047768;28;20037;-65
2022/11/22 07:48:28;;;;;;;3.33;0.98;;;;;;;;;;5031398;28;20130;-64
2022/11/22 07:50:53;;;;;;;1.05;0.43;;;;;;;;;;5036942;28;20088;-64
2022/11/22 07:53:19;;;;;;;1.75;0.85;;;;;;;;;;5041392;28;20037;-64
2022/11/22 07:55:44;;;;;;;1.50;0.80;;;;;;;;;;5038918;28;20053;-64
2022/11/22 07:58:10;;;;;;;4.50;1.60;;;;;;;;;;5044804;28;20033;-64
2022/11/22 08:00:35;;;;;;;2.45;1.33;;;;;;;;;;5047051;28;20407;-64
2022/11/22 08:03:00;;;;;;;4.53;1.77;;;;;;;;;;5044367;28;20128;-65
2022/11/22 08:05:26;;;;;;;2.13;1.00;;;;;;;;;;5049564;28;20433;-65
2022/11/22 08:07:52;;;;;;;6.65;1.65;;;;;;;;;;5047100;28;20509;-65
2022/11/22 08:10:19;;;;;;;6.47;2.08;;;;;;;;;;5029161;28;20029;-64
2022/11/22 08:12:44;;;;;;;4.65;1.27;;;;;;;;;;5027729;28;20044;-65
2022/11/22 08:15:12;;;;;;;2.53;1.60;;;;;;;;;;5043894;28;20041;-64
2022/11/22 08:17:37;;;;;;;5.13;1.85;;;;;;;;;;5042910;28;20037;-64
2022/11/22 08:20:05;;;;;;;3.65;1.08;;;;;;;;;;5044645;28;20459;-62
2022/11/22 08:22:30;;;;;;;4.90;1.73;;;;;;;;;;5043409;28;20037;-62
2022/11/22 08:24:56;;;;;;;3.70;1.38;;;;;;;;;;5046436;28;20021;-62
2022/11/22 08:27:21;;;;;;;4.78;1.63;;;;;;;;;;5043916;28;20033;-62
2022/11/22 08:29:46;;;;;;;3.85;1.15;;;;;;;;;;5042837;28;20086;-61
2022/11/22 08:32:12;;;;;;;2.08;0.80;;;;;;;;;;5036736;28;20422;-62
2022/11/22 08:34:37;;;;;;;3.47;1.30;;;;;;;;;;5040308;28;20033;-62
2022/11/22 08:37:02;;;;;;;6.75;2.10;;;;;;;;;;5032652;28;20487;-62
2022/11/22 08:39:27;;;;;;;2.92;0.80;;;;;;;;;;5043003;28;20131;-62
2022/11/22 08:41:53;;;;;;;3.38;1.92;;;;;;;;;;5044932;28;20124;-62
2022/11/22 08:44:18;;;;;;;2.78;1.55;;;;;;;;;;5044073;28;20422;-62
2022/11/22 08:46:43;;;;;;;3.72;1.30;;;;;;;;;;5037025;28;20044;-62
2022/11/22 08:49:12;;;;;;;2.70;1.50;;;;;;;;;;5066935;28;20117;-62
2022/11/22 08:51:43;;;;;;;1.55;1.10;;;;;;;;;;5065697;28;20056;-62
2022/11/22 08:54:10;;;;;;;2.22;1.48;;;;;;;;;;5066473;28;20036;-62
2022/11/22 08:56:35;;;;;;;5.47;1.65;;;;;;;;;;5056598;28;20090;-62
2022/11/22 08:59:00;;;;;;;1.75;1.23;;;;;;;;;;5043271;28;20912;-62
2022/11/22 09:01:26;;;;;;;3.10;1.27;;;;;;;;;;5034528;28;20151;-62
2022/11/22 09:03:51;;;;;;;1.98;1.35;;;;;;;;;;5026086;28;20026;-62
2022/11/22 09:06:18;;;;;;;2.45;1.15;;;;;;;;;;5028145;28;20033;-62
2022/11/22 09:08:44;;;;;;;1.55;0.95;;;;;;;;;;5041521;28;20049;-62
2022/11/22 09:11:12;;;;;;;8.55;1.38;;;;;;;;;;5027854;28;20754;-62
2022/11/22 09:13:38;;;;;;;1.42;0.70;;;;;;;;;;5042240;28;20060;-62
2022/11/22 09:16:18;;;;;;;0.85;0.60;;;;;;;;;;5044738;28;20068;-62
2022/11/22 09:18:43;;;;;;;4.85;1.52;;;;;;;;;;5045042;28;20041;-62
2022/11/22 09:21:14;;;;;;;1.63;1.02;;;;;;;;;;5045125;28;20063;-62
2022/11/22 09:23:42;;;;;;;2.17;1.48;;;;;;;;;;5029055;28;20132;-62
2022/11/22 09:26:10;;;;;;;2.38;0.85;;;;;;;;;;5028276;28;20413;-62
2022/11/22 09:28:36;;;;;;;3.42;0.63;;;;;;;;;;5026612;28;20037;-62
2022/11/22 09:31:13;;;;;;;2.40;0.90;;;;;;;;;;5025812;28;20040;-62
2022/11/22 09:33:40;;;;;;;1.15;0.70;;;;;;;;;;5035640;28;20048;-62
2022/11/22 09:36:14;;;;;;;2.30;1.23;;;;;;;;;;5030635;28;20037;-62
2022/11/22 09:38:40;;;;;;;3.53;1.20;;;;;;;;;;5029215;28;20041;-63
2022/11/22 09:41:20;;;;;;;2.97;1.50;;;;;;;;;;5025597;28;20498;-63
2022/11/22 09:44:04;;;;;;;3.85;1.33;;;;;;;;;;5024583;28;20469;-62
2022/11/22 09:46:54;;;;;;;0.65;0.65;;;;;;;;;;5040487;28;20052;-63
2022/11/22 09:49:27;;;;;;;3.63;1.30;;;;;;;;;;5045721;28;20516;-62
2022/11/22 09:51:58;;;;;;;3.88;1.42;;;;;;;;;;5028390;28;20050;-63
2022/11/22 09:54:29;;;;;;;2.00;1.38;;;;;;;;;;5033225;28;20053;-62
2022/11/22 09:56:58;;;;;;;1.00;0.80;;;;;;;;;;5040126;28;20028;-62
2022/11/22 09:59:31;;;;;;;4.18;1.23;;;;;;;;;;5048259;28;20049;-62
2022/11/22 10:02:04;;;;;;;2.08;0.60;;;;;;;;;;5048530;28;20132;-63
2022/11/22 10:04:41;;;;;;;3.30;1.30;;;;;;;;;;5048739;28;20065;-62
2022/11/22 10:07:15;;;;;;;2.00;1.27;;;;;;;;;;5048821;28;20104;-62
2022/11/22 10:09:49;;;;;;;3.45;0.90;;;;;;;;;;5048436;28;20067;-62
2022/11/22 10:12:21;;;;;;;2.05;1.10;;;;;;;;;;5023493;28;20080;-62
2022/11/22 10:14:54;;;;;;;2.80;1.15;;;;;;;;;;5032014;28;20057;-63
2022/11/22 10:17:40;;;;;;;0.80;0.68;;;;;;;;;;5030477;28;20037;-62
2022/11/22 10:20:41;;;;;;;6.40;1.45;;;;;;;;;;5027532;28;20489;-63
2022/11/22 10:23:21;;;;;;;1.08;0.80;;;;;;;;;;4920837;28;20045;-63
2022/11/22 10:25:56;;;;;;;1.77;1.02;;;;;;;;;;5029676;28;20124;-63
2022/11/22 10:28:32;;;;;;;0.88;0.88;;;;;;;;;;5036280;28;20029;-62
2022/11/22 10:31:06;;;;;;;4.22;1.55;;;;;;;;;;5043260;28;20078;-63
2022/11/22 10:34:03;;;;;;;0.80;0.80;;;;;;;;;;5045581;28;20060;-62
2022/11/22 10:36:45;;;;;;;1.83;1.00;;;;;;;;;;5046803;28;20040;-63
2022/11/22 10:39:24;;;;;;;5.00;1.10;;;;;;;;;;5035387;28;20051;-62
2022/11/22 10:42:08;;;;;;;2.05;1.02;;;;;;;;;;5035998;28;20441;-63
2022/11/22 10:44:46;;;;;;;0.80;0.70;;;;;;;;;;5032526;28;20041;-63
2022/11/22 10:47:43;;;;;;;1.25;0.60;;;;;;;;;;5047873;28;20041;-63
2022/11/22 10:50:40;;;;;;;2.22;0.40;;;;;;;;;;5009345;28;20073;-64
2022/11/22 10:53:27;;;;;;;1.70;0.73;;;;;;;;;;5036618;28;20040;-63
2022/11/22 10:56:07;;;;;;;2.50;0.73;;;;;;;;;;5030040;28;20040;-63
2022/11/22 10:58:51;;;;;;;1.10;0.82;;;;;;;;;;5033268;28;20040;-63
2022/11/22 11:01:42;;;;;;;0.63;0.63;;;;;;;;;;5040673;28;20044;-62
2022/11/22 11:04:10;;;;;;;2.63;1.00;;;;;;;;;;5045962;28;20039;-63
2022/11/22 11:06:48;;;;;;;3.15;0.77;;;;;;;;;;5028841;28;20037;-63
2022/11/22 11:09:36;;;;;;;0.50;0.50;;;;;;;;;;5025548;28;20045;-62
2022/11/22 11:12:12;;;;;;;1.17;0.70;;;;;;;;;;5027785;28;20041;-64
2022/11/22 11:14:42;;;;;;;0.90;0.80;;;;;;;;;;5040079;28;20061;-63
2022/11/22 11:17:16;;;;;;;1.17;0.80;;;;;;;;;;5047861;28;20033;-63
2022/11/22 11:19:45;;;;;;;1.10;0.77;;;;;;;;;;5039882;28;20042;-63
2022/11/22 11:22:37;;;;;;;1.00;0.90;;;;;;;;;;5034918;28;20024;-62
2022/11/22 11:25:41;;;;;;;1.67;0.82;;;;;;;;;;5064198;28;20067;-63
2022/11/22 11:28:24;;;;;;;0.60;0.60;;;;;;;;;;5066730;28;20463;-63
2022/11/22 11:30:54;;;;;;;0.38;0.38;;;;;;;;;;5061545;28;20035;-63
2022/11/22 11:33:31;;;;;;;0.90;0.63;;;;;;;;;;5060638;28;20064;-63
2022/11/22 11:36:02;;;;;;;2.33;0.60;;;;;;;;;;5041438;28;20124;-63
2022/11/22 11:38:52;;;;;;;0.50;0.50;;;;;;;;;;5025214;22;20076;-85
2022/11/22 11:41:33;;;;;;;0.75;0.60;;;;;;;;;;4976889;28;20836;-88
2022/11/22 11:44:01;;;;;;;0.55;0.50;;;;;;;;;;5022101;28;20168;-85
2022/11/22 11:46:42;;;;;;;0.40;0.40;;;;;;;;;;5004549;23;20597;-79
2022/11/22 11:52:30;;;;;;;0.88;0.70;;;;;;;;;;5036879;28;20532;-80
2022/11/22 11:55:01;;;;;;;0.52;0.52;;;;;;;;;;5061405;28;20037;-80
2022/11/22 11:57:29;;;;;;;1.15;0.60;;;;;;;;;;5047897;28;20085;-80
2022/11/22 11:59:58;;;;;;;0.82;0.70;;;;;;;;;;5044393;28;20029;-79
2022/11/22 12:02:31;;;;;;;1.55;0.80;;;;;;;;;;5068571;28;20082;-79
2022/11/22 12:04:59;;;;;;;;;;;;;;;;;;5049644;28;20033;-81
2022/11/22 12:07:27;;;;;;;0.90;0.60;;;;;;;;;;5041087;28;19920;-81
2022/11/22 12:09:55;;;;;;;1.33;0.90;;;;;;;;;;5042476;28;20036;-82
2022/11/22 12:12:32;;;;;;;1.02;0.73;;;;;;;;;;5044885;28;20489;-82
2022/11/22 12:15:02;;;;;;;0.95;0.57;;;;;;;;;;5027811;28;20128;-82
2022/11/22 12:17:33;;;;;;;5.38;0.82;;;;;;;;;;5042047;28;20064;-80
2022/11/22 12:20:10;;;;;;;0.93;0.70;;;;;;;;;;5040597;28;20025;-79
2022/11/22 12:22:58;;;;;;;0.95;0.70;;;;;;;;;;5041696;28;20033;-79
2022/11/22 12:25:32;;;;;;;2.45;0.70;;;;;;;;;;5044232;28;20190;-82
2022/11/22 12:28:09;;;;;;;1.25;0.82;;;;;;;;;;5039947;28;20100;-82
2022/11/22 12:30:37;;;;;;;2.10;0.85;;;;;;;;;;5044850;28;20033;-82
2022/11/22 12:33:07;;;;;;;2.15;0.80;;;;;;;;;;5035024;28;20017;-83
2022/11/22 12:35:41;;;;;;;2.33;0.88;;;;;;;;;;5030310;28;20057;-80
2022/11/22 12:38:14;;;;;;;1.35;0.80;;;;;;;;;;5042857;28;20045;-79
2022/11/22 12:40:43;;;;;;;1.55;0.73;;;;;;;;;;5028265;28;20533;-82
2022/11/22 12:43:26;;;;;;;2.60;0.90;;;;;;;;;;5026106;28;20585;-82
2022/11/22 12:45:54;;;;;;;0.50;0.50;;;;;;;;;;5025056;28;20033;-83
2022/11/22 12:48:33;;;;;;;1.85;1.08;;;;;;;;;;5027013;28;20052;-82
2022/11/22 12:51:08;;;;;;;1.65;0.90;;;;;;;;;;5025555;28;20022;-82
2022/11/22 12:53:40;;;;;;;1.40;1.05;;;;;;;;;;5019790;28;20702;-82
2022/11/22 12:56:09;;;;;;;1.50;1.00;;;;;;;;;;5025587;28;20091;-82
2022/11/22 12:58:51;;;;;;;1.30;0.70;;;;;;;;;;5022731;28;20122;-82
2022/11/22 13:01:27;;;;;;;1.42;0.93;;;;;;;;;;5023443;28;20637;-82
2022/11/22 13:03:58;;;;;;;0.90;0.63;;;;;;;;;;5029579;28;20021;-82
2022/11/22 13:06:26;;;;;;;1.60;0.85;;;;;;;;;;5026146;28;20465;-82
2022/11/22 13:09:01;;;;;;;3.03;0.93;;;;;;;;;;5021324;28;20029;-79
2022/11/22 13:12:05;;;;;;;4.10;1.00;;;;;;;;;;5022469;28;20037;-80
2022/11/22 13:14:35;;;;;;;0.90;0.80;;;;;;;;;;5029694;28;20057;-80
2022/11/22 13:17:08;;;;;;;3.75;0.85;;;;;;;;;;5025004;28;20037;-80
2022/11/22 13:19:43;;;;;;;1.33;1.00;;;;;;;;;;5012354;28;20045;-80
2022/11/22 13:22:18;;;;;;;0.65;0.65;;;;;;;;;;5025225;28;20034;-80
2022/11/22 13:25:03;;;;;;;4.68;1.00;;;;;;;;;;5006262;28;20034;-79
2022/11/22 13:27:48;;;;;;;1.00;0.70;;;;;;;;;;5026360;28;20033;-81
2022/11/22 13:30:25;;;;;;;3.08;0.80;;;;;;;;;;5024945;28;20033;-81
2022/11/22 13:32:53;;;;;;;2.10;0.68;;;;;;;;;;5025566;28;20060;-81
2022/11/22 13:35:26;;;;;;;2.25;1.05;;;;;;;;;;5023634;28;20049;-81
2022/11/22 13:38:01;;;;;;;3.05;0.77;;;;;;;;;;5022627;28;20088;-82
2022/11/22 13:40:31;;;;;;;2.90;0.85;;;;;;;;;;5022351;28;20033;-80
2022/11/22 13:43:12;;;;;;;0.50;0.50;;;;;;;;;;5023665;28;20041;-80
2022/11/22 13:45:59;;;;;;;1.10;0.80;;;;;;;;;;5023169;28;20045;-80
2022/11/22 13:48:39;;;;;;;1.10;0.70;;;;;;;;;;5036994;28;20041;-81
2022/11/22 13:51:06;;;;;;;0.60;0.60;;;;;;;;;;5019899;28;20104;-81
2022/11/22 13:53:35;;;;;;;1.55;0.63;;;;;;;;;;5020217;28;20052;-81
2022/11/22 13:56:19;;;;;;;2.92;0.93;;;;;;;;;;5024641;28;20041;-82
2022/11/22 13:58:50;;;;;;;1.30;0.70;;;;;;;;;;5021125;28;20707;-82
2022/11/22 14:01:38;;;;;;;1.50;0.70;;;;;;;;;;5025166;28;20038;-81
2022/11/22 14:04:25;;;;;;;1.80;0.70;;;;;;;;;;5019742;28;20030;-81
2022/11/22 14:06:54;;;;;;;1.52;0.60;;;;;;;;;;5016143;28;20129;-80
2022/11/22 14:09:43;;;;;;;2.05;0.70;;;;;;;;;;5037689;28;20033;-81
2022/11/22 14:12:19;;;;;;;2.95;0.68;;;;;;;;;;5037188;28;20017;-81
2022/11/22 14:15:04;;;;;;;2.03;0.50;;;;;;;;;;5024442;28;20037;-80
2022/11/22 14:17:48;;;;;;;1.00;0.70;;;;;;;;;;5003160;28;20521;-81
2022/11/22 14:20:35;;;;;;;3.45;0.80;;;;;;;;;;5025642;28;20680;-81
2022/11/22 14:23:22;;;;;;;5.75;0.70;;;;;;;;;;5025185;28;20040;-78
2022/11/22 14:26:02;;;;;;;1.08;0.73;;;;;;;;;;5029473;28;20049;-80
2022/11/22 14:28:58;;;;;;;4.88;0.82;;;;;;;;;;5028470;28;20685;-81
2022/11/22 14:31:29;;;;;;;2.55;0.75;;;;;;;;;;5028749;28;20034;-81
2022/11/22 14:34:14;;;;;;;0.43;0.40;;;;;;;;;;5023589;28;20053;-80
2022/11/22 14:36:39;;;;;;;2.05;0.60;;;;;;;;;;5019508;28;20033;-80
2022/11/22 14:39:42;;;;;;;2.65;1.13;;;;;;;;;;5028719;28;20026;-80
2022/11/22 14:42:41;;;;;;;1.30;0.90;;;;;;;;;;5021350;28;20077;-80
2022/11/22 14:45:10;;;;;;;4.15;0.80;;;;;;;;;;5027247;28;20124;-80
2022/11/22 14:47:38;;;;;;;2.60;0.75;;;;;;;;;;5024354;28;20490;-81
2022/11/22 14:50:12;;;;;;;2.88;0.80;;;;;;;;;;5027918;28;20060;-80
2022/11/22 14:52:38;;;;;;;4.45;1.05;;;;;;;;;;5026713;28;20068;-80
2022/11/22 14:55:07;;;;;;;4.10;1.20;;;;;;;;;;5026435;28;20045;-81
2022/11/22 14:57:35;;;;;;;4.43;1.10;;;;;;;;;;5022109;28;20613;-81
2022/11/22 15:00:04;;;;;;;6.13;1.15;;;;;;;;;;5028250;28;20053;-80
2022/11/22 15:02:43;;;;;;;3.28;1.17;;;;;;;;;;5026532;28;20050;-80
2022/11/22 15:05:40;;;;;;;4.80;1.20;;;;;;;;;;5021188;28;20030;-81
2022/11/22 15:08:22;;;;;;;3.58;1.30;;;;;;;;;;5020781;28;20072;-80
2022/11/22 15:11:15;;;;;;;5.60;1.30;;;;;;;;;;5026987;28;20593;-81
2022/11/22 15:14:05;;;;;;;4.77;1.53;;;;;;;;;;5042244;28;20044;-80
2022/11/22 15:16:31;;;;;;;9.38;2.10;;;;;;;;;;5026903;28;20109;-81